sensor_id;sensor_type;location;lat;lon;timestamp;temperature;humidity
24226;DHT22;51462;51.422;5.514;2022-11-15T00:00:50;8.50;99.90
24226;DHT22;51462;51.422;5.514;2022-11-15T00:03:21;8.50;99.90
24226;DHT22;51462;51.422;5.514;2022-11-15T00:05:47;8.50;99.90
24226;DHT22;51462;51.422;5.514;2022-11-15T00:08:13;8.40;99.90
24226;DHT22;51462;51.422;5.514;2022-11-15T00:10:39;8.40;99.90
24226;DHT22;51462;51.422;5.514;2022-11-15T00:13:10;8.50;99.90
24226;DHT22;51462;51.422;5.514;2022-11-15T00:15:37;8.50;99.90
24226;DHT22;51462;51.422;5.514;2022-11-15T00:18:06;8.50;99.90
24226;DHT22;51462;51.422;5.514;2022-11-15T00:20:35;8.50;99.90
24226;DHT22;51462;51.422;5.514;2022-11-15T00:23:03;8.50;99.90
24226;DHT22;51462;51.422;5.514;2022-11-15T00:25:28;8.50;99.90
24226;DHT22;51462;51.422;5.514;2022-11-15T00:27:58;8.60;99.90
24226;DHT22;51462;51.422;5.514;2022-11-15T00:30:23;8.70;99.90
24226;DHT22;51462;51.422;5.514;2022-11-15T00:32:49;8.70;99.90
24226;DHT22;51462;51.422;5.514;2022-11-15T00:35:15;8.70;99.90
24226;DHT22;51462;51.422;5.514;2022-11-15T00:37:40;8.70;99.90
24226;DHT22;51462;51.422;5.514;2022-11-15T00:40:07;8.70;99.90
24226;DHT22;51462;51.422;5.514;2022-11-15T00:42:32;8.70;99.90
24226;DHT22;51462;51.422;5.514;2022-11-15T00:44:58;8.70;99.90
24226;DHT22;51462;51.422;5.514;2022-11-15T00:47:23;8.70;99.90
24226;DHT22;51462;51.422;5.514;2022-11-15T00:49:49;8.80;99.90
24226;DHT22;51462;51.422;5.514;2022-11-15T00:52:14;8.80;99.90
24226;DHT22;51462;51.422;5.514;2022-11-15T00:54:40;8.90;99.90
24226;DHT22;51462;51.422;5.514;2022-11-15T00:57:05;8.90;99.90
24226;DHT22;51462;51.422;5.514;2022-11-15T00:59:31;8.80;99.90
24226;DHT22;51462;51.422;5.514;2022-11-15T01:01:56;8.80;99.90
24226;DHT22;51462;51.422;5.514;2022-11-15T01:04:22;8.90;99.90
24226;DHT22;51462;51.422;5.514;2022-11-15T01:06:47;9.00;99.90
24226;DHT22;51462;51.422;5.514;2022-11-15T01:09:13;8.90;99.90
24226;DHT22;51462;51.422;5.514;2022-11-15T01:11:39;8.90;99.90
24226;DHT22;51462;51.422;5.514;2022-11-15T01:14:04;8.90;99.90
24226;DHT22;51462;51.422;5.514;2022-11-15T01:16:30;9.00;99.90
24226;DHT22;51462;51.422;5.514;2022-11-15T01:18:56;8.90;99.90
24226;DHT22;51462;51.422;5.514;2022-11-15T01:21:21;8.90;99.90
24226;DHT22;51462;51.422;5.514;2022-11-15T01:23:47;8.90;99.90
24226;DHT22;51462;51.422;5.514;2022-11-15T01:26:15;8.90;99.90
24226;DHT22;51462;51.422;5.514;2022-11-15T01:28:41;8.90;99.90
24226;DHT22;51462;51.422;5.514;2022-11-15T01:31:14;8.90;99.90
24226;DHT22;51462;51.422;5.514;2022-11-15T01:33:40;8.90;99.90
24226;DHT22;51462;51.422;5.514;2022-11-15T01:36:17;8.90;99.90
24226;DHT22;51462;51.422;5.514;2022-11-15T01:38:44;8.90;99.90
24226;DHT22;51462;51.422;5.514;2022-11-15T01:41:22;8.90;99.90
24226;DHT22;51462;51.422;5.514;2022-11-15T01:47:01;9.00;99.90
24226;DHT22;51462;51.422;5.514;2022-11-15T01:49:27;9.10;99.90
24226;DHT22;51462;51.422;5.514;2022-11-15T01:51:55;9.10;99.90
24226;DHT22;51462;51.422;5.514;2022-11-15T01:54:23;9.10;99.90
24226;DHT22;51462;51.422;5.514;2022-11-15T01:57:02;9.10;99.90
24226;DHT22;51462;51.422;5.514;2022-11-15T01:59:28;9.20;99.90
24226;DHT22;51462;51.422;5.514;2022-11-15T02:01:54;9.30;99.90
24226;DHT22;51462;51.422;5.514;2022-11-15T02:04:34;9.30;99.90
24226;DHT22;51462;51.422;5.514;2022-11-15T02:07:03;9.50;99.90
24226;DHT22;51462;51.422;5.514;2022-11-15T02:09:29;9.60;99.90
24226;DHT22;51462;51.422;5.514;2022-11-15T02:11:56;9.60;99.90
24226;DHT22;51462;51.422;5.514;2022-11-15T02:14:22;9.60;99.90
24226;DHT22;51462;51.422;5.514;2022-11-15T02:17:07;9.60;99.90
24226;DHT22;51462;51.422;5.514;2022-11-15T02:22:37;9.80;99.90
24226;DHT22;51462;51.422;5.514;2022-11-15T02:33:55;9.90;99.90
24226;DHT22;51462;51.422;5.514;2022-11-15T02:36:41;10.00;99.90
24226;DHT22;51462;51.422;5.514;2022-11-15T02:39:23;10.00;99.90
24226;DHT22;51462;51.422;5.514;2022-11-15T02:42:02;9.90;99.90
24226;DHT22;51462;51.422;5.514;2022-11-15T02:44:37;10.00;99.90
24226;DHT22;51462;51.422;5.514;2022-11-15T02:47:07;9.90;99.90
24226;DHT22;51462;51.422;5.514;2022-11-15T02:49:49;10.00;99.90
24226;DHT22;51462;51.422;5.514;2022-11-15T02:52:20;9.90;99.90
24226;DHT22;51462;51.422;5.514;2022-11-15T02:55:02;10.30;99.90
24226;DHT22;51462;51.422;5.514;2022-11-15T03:00:21;10.10;99.90
24226;DHT22;51462;51.422;5.514;2022-11-15T03:05:43;10.10;99.90
24226;DHT22;51462;51.422;5.514;2022-11-15T03:08:22;10.30;99.90
24226;DHT22;51462;51.422;5.514;2022-11-15T03:13:38;10.50;99.90
24226;DHT22;51462;51.422;5.514;2022-11-15T03:16:09;10.40;99.90
24226;DHT22;51462;51.422;5.514;2022-11-15T03:18:43;10.40;99.90
24226;DHT22;51462;51.422;5.514;2022-11-15T03:21:11;10.30;99.90
24226;DHT22;51462;51.422;5.514;2022-11-15T03:23:39;10.30;99.90
24226;DHT22;51462;51.422;5.514;2022-11-15T03:26:08;10.30;99.90
24226;DHT22;51462;51.422;5.514;2022-11-15T03:28:42;10.30;99.90
24226;DHT22;51462;51.422;5.514;2022-11-15T03:31:10;10.40;99.90
24226;DHT22;51462;51.422;5.514;2022-11-15T03:33:58;10.40;99.90
24226;DHT22;51462;51.422;5.514;2022-11-15T03:36:25;10.40;99.90
24226;DHT22;51462;51.422;5.514;2022-11-15T03:38:54;10.40;99.90
24226;DHT22;51462;51.422;5.514;2022-11-15T03:41:38;10.40;99.90
24226;DHT22;51462;51.422;5.514;2022-11-15T03:47:43;10.40;99.90
24226;DHT22;51462;51.422;5.514;2022-11-15T03:49:55;10.50;99.90
24226;DHT22;51462;51.422;5.514;2022-11-15T03:52:22;10.50;99.90
24226;DHT22;51462;51.422;5.514;2022-11-15T03:54:54;10.50;99.90
24226;DHT22;51462;51.422;5.514;2022-11-15T03:57:20;10.50;99.90
24226;DHT22;51462;51.422;5.514;2022-11-15T03:59:46;10.30;99.90
24226;DHT22;51462;51.422;5.514;2022-11-15T04:02:12;10.30;99.90
24226;DHT22;51462;51.422;5.514;2022-11-15T04:04:37;10.50;99.90
24226;DHT22;51462;51.422;5.514;2022-11-15T04:07:03;10.50;99.90
24226;DHT22;51462;51.422;5.514;2022-11-15T04:09:28;10.50;99.90
24226;DHT22;51462;51.422;5.514;2022-11-15T04:11:54;10.40;99.90
24226;DHT22;51462;51.422;5.514;2022-11-15T04:14:20;10.30;99.90
24226;DHT22;51462;51.422;5.514;2022-11-15T04:16:45;10.40;99.90
24226;DHT22;51462;51.422;5.514;2022-11-15T04:19:10;10.40;99.90
24226;DHT22;51462;51.422;5.514;2022-11-15T04:21:55;10.40;99.90
24226;DHT22;51462;51.422;5.514;2022-11-15T04:24:39;10.40;99.90
24226;DHT22;51462;51.422;5.514;2022-11-15T04:27:05;10.50;99.90
24226;DHT22;51462;51.422;5.514;2022-11-15T04:29:30;10.40;99.90
24226;DHT22;51462;51.422;5.514;2022-11-15T04:32:03;10.40;99.90
24226;DHT22;51462;51.422;5.514;2022-11-15T04:34:30;10.60;99.90
24226;DHT22;51462;51.422;5.514;2022-11-15T04:36:56;10.50;99.90
24226;DHT22;51462;51.422;5.514;2022-11-15T04:39:37;10.30;99.90
24226;DHT22;51462;51.422;5.514;2022-11-15T04:42:02;10.40;99.90
24226;DHT22;51462;51.422;5.514;2022-11-15T04:44:28;10.50;99.90
24226;DHT22;51462;51.422;5.514;2022-11-15T04:46:54;10.50;99.90
24226;DHT22;51462;51.422;5.514;2022-11-15T04:49:19;10.50;99.90
24226;DHT22;51462;51.422;5.514;2022-11-15T04:51:45;10.60;99.90
24226;DHT22;51462;51.422;5.514;2022-11-15T04:54:10;10.60;99.90
24226;DHT22;51462;51.422;5.514;2022-11-15T04:56:36;10.50;99.90
24226;DHT22;51462;51.422;5.514;2022-11-15T04:59:01;10.50;99.90
24226;DHT22;51462;51.422;5.514;2022-11-15T05:01:27;10.40;99.90
24226;DHT22;51462;51.422;5.514;2022-11-15T05:03:52;10.40;99.90
24226;DHT22;51462;51.422;5.514;2022-11-15T05:06:37;10.50;99.90
24226;DHT22;51462;51.422;5.514;2022-11-15T05:09:03;10.40;99.90
24226;DHT22;51462;51.422;5.514;2022-11-15T05:11:28;10.40;99.90
24226;DHT22;51462;51.422;5.514;2022-11-15T05:13:54;10.60;99.90
24226;DHT22;51462;51.422;5.514;2022-11-15T05:16:20;10.50;99.90
24226;DHT22;51462;51.422;5.514;2022-11-15T05:18:45;10.60;99.90
24226;DHT22;51462;51.422;5.514;2022-11-15T05:21:13;10.60;99.90
24226;DHT22;51462;51.422;5.514;2022-11-15T05:23:39;10.70;99.90
24226;DHT22;51462;51.422;5.514;2022-11-15T05:26:06;10.70;99.90
24226;DHT22;51462;51.422;5.514;2022-11-15T05:28:33;10.70;99.90
24226;DHT22;51462;51.422;5.514;2022-11-15T05:31:09;10.80;99.90
24226;DHT22;51462;51.422;5.514;2022-11-15T05:33:39;10.70;99.90
24226;DHT22;51462;51.422;5.514;2022-11-15T05:38:37;10.50;99.90
24226;DHT22;51462;51.422;5.514;2022-11-15T05:41:04;10.50;99.90
24226;DHT22;51462;51.422;5.514;2022-11-15T05:43:30;10.60;99.90
24226;DHT22;51462;51.422;5.514;2022-11-15T05:45:57;10.60;99.90
24226;DHT22;51462;51.422;5.514;2022-11-15T05:48:24;10.50;99.90
24226;DHT22;51462;51.422;5.514;2022-11-15T05:50:49;10.60;99.90
24226;DHT22;51462;51.422;5.514;2022-11-15T05:53:19;10.70;99.90
24226;DHT22;51462;51.422;5.514;2022-11-15T05:55:45;10.70;99.90
24226;DHT22;51462;51.422;5.514;2022-11-15T05:58:11;10.70;99.90
24226;DHT22;51462;51.422;5.514;2022-11-15T06:00:36;10.80;99.90
24226;DHT22;51462;51.422;5.514;2022-11-15T06:03:02;10.80;99.90
24226;DHT22;51462;51.422;5.514;2022-11-15T06:05:28;10.90;99.90
24226;DHT22;51462;51.422;5.514;2022-11-15T06:07:57;10.80;99.90
24226;DHT22;51462;51.422;5.514;2022-11-15T06:10:23;10.90;99.90
24226;DHT22;51462;51.422;5.514;2022-11-15T06:12:56;10.90;99.90
24226;DHT22;51462;51.422;5.514;2022-11-15T06:15:22;10.90;99.90
24226;DHT22;51462;51.422;5.514;2022-11-15T06:17:47;10.90;99.90
24226;DHT22;51462;51.422;5.514;2022-11-15T06:20:13;11.00;99.90
24226;DHT22;51462;51.422;5.514;2022-11-15T06:22:39;10.90;99.90
24226;DHT22;51462;51.422;5.514;2022-11-15T06:25:05;10.90;99.90
24226;DHT22;51462;51.422;5.514;2022-11-15T06:27:30;10.90;99.90
24226;DHT22;51462;51.422;5.514;2022-11-15T06:29:56;10.90;99.90
24226;DHT22;51462;51.422;5.514;2022-11-15T06:32:21;10.90;99.90
24226;DHT22;51462;51.422;5.514;2022-11-15T06:34:47;10.90;99.90
24226;DHT22;51462;51.422;5.514;2022-11-15T06:37:12;11.00;99.90
24226;DHT22;51462;51.422;5.514;2022-11-15T06:39:38;11.00;99.90
24226;DHT22;51462;51.422;5.514;2022-11-15T06:42:03;11.00;99.90
24226;DHT22;51462;51.422;5.514;2022-11-15T06:44:29;10.90;99.90
24226;DHT22;51462;51.422;5.514;2022-11-15T06:46:54;10.90;99.90
24226;DHT22;51462;51.422;5.514;2022-11-15T06:49:20;10.90;99.90
24226;DHT22;51462;51.422;5.514;2022-11-15T06:51:45;10.90;99.90
24226;DHT22;51462;51.422;5.514;2022-11-15T06:54:11;10.80;99.90
24226;DHT22;51462;51.422;5.514;2022-11-15T06:56:36;10.80;99.90
24226;DHT22;51462;51.422;5.514;2022-11-15T06:59:02;10.80;99.90
24226;DHT22;51462;51.422;5.514;2022-11-15T07:01:28;10.80;99.90
24226;DHT22;51462;51.422;5.514;2022-11-15T07:03:53;10.80;99.90
24226;DHT22;51462;51.422;5.514;2022-11-15T07:06:19;10.80;99.90
24226;DHT22;51462;51.422;5.514;2022-11-15T07:08:44;10.80;99.90
24226;DHT22;51462;51.422;5.514;2022-11-15T07:11:11;10.70;99.90
24226;DHT22;51462;51.422;5.514;2022-11-15T07:13:36;10.70;99.90
24226;DHT22;51462;51.422;5.514;2022-11-15T07:16:07;10.80;99.90
24226;DHT22;51462;51.422;5.514;2022-11-15T07:18:34;10.70;99.90
24226;DHT22;51462;51.422;5.514;2022-11-15T07:21:02;10.80;99.90
24226;DHT22;51462;51.422;5.514;2022-11-15T07:23:27;10.80;99.90
24226;DHT22;51462;51.422;5.514;2022-11-15T07:25:53;10.70;99.90
24226;DHT22;51462;51.422;5.514;2022-11-15T07:28:18;10.70;99.90
24226;DHT22;51462;51.422;5.514;2022-11-15T07:30:44;10.70;99.90
24226;DHT22;51462;51.422;5.514;2022-11-15T07:33:09;10.70;99.90
24226;DHT22;51462;51.422;5.514;2022-11-15T07:35:35;10.80;99.90
24226;DHT22;51462;51.422;5.514;2022-11-15T07:38:01;10.70;99.90
24226;DHT22;51462;51.422;5.514;2022-11-15T07:40:29;10.80;99.90
24226;DHT22;51462;51.422;5.514;2022-11-15T07:43:00;10.80;99.90
24226;DHT22;51462;51.422;5.514;2022-11-15T07:45:25;10.70;99.90
24226;DHT22;51462;51.422;5.514;2022-11-15T07:47:52;10.70;99.90
24226;DHT22;51462;51.422;5.514;2022-11-15T07:50:17;10.80;99.90
24226;DHT22;51462;51.422;5.514;2022-11-15T07:52:44;10.80;99.90
24226;DHT22;51462;51.422;5.514;2022-11-15T07:55:10;10.80;99.90
24226;DHT22;51462;51.422;5.514;2022-11-15T07:57:36;10.90;99.90
24226;DHT22;51462;51.422;5.514;2022-11-15T08:00:03;10.90;99.90
24226;DHT22;51462;51.422;5.514;2022-11-15T08:02:29;11.00;99.90
24226;DHT22;51462;51.422;5.514;2022-11-15T08:04:54;10.90;99.90
24226;DHT22;51462;51.422;5.514;2022-11-15T08:07:20;11.00;99.90
24226;DHT22;51462;51.422;5.514;2022-11-15T08:09:46;10.90;99.90
24226;DHT22;51462;51.422;5.514;2022-11-15T08:12:11;10.90;99.90
24226;DHT22;51462;51.422;5.514;2022-11-15T08:14:37;10.80;99.90
24226;DHT22;51462;51.422;5.514;2022-11-15T08:17:02;10.80;99.90
24226;DHT22;51462;51.422;5.514;2022-11-15T08:19:28;10.80;99.90
24226;DHT22;51462;51.422;5.514;2022-11-15T08:21:53;10.70;99.90
24226;DHT22;51462;51.422;5.514;2022-11-15T08:24:19;10.80;99.90
24226;DHT22;51462;51.422;5.514;2022-11-15T08:26:45;10.80;99.90
24226;DHT22;51462;51.422;5.514;2022-11-15T08:29:11;10.80;99.90
24226;DHT22;51462;51.422;5.514;2022-11-15T08:31:36;10.80;99.90
24226;DHT22;51462;51.422;5.514;2022-11-15T08:34:03;10.80;99.90
24226;DHT22;51462;51.422;5.514;2022-11-15T08:36:28;10.80;99.90
24226;DHT22;51462;51.422;5.514;2022-11-15T08:38:54;10.80;99.90
24226;DHT22;51462;51.422;5.514;2022-11-15T08:41:32;10.80;99.90
24226;DHT22;51462;51.422;5.514;2022-11-15T08:43:58;10.80;99.90
24226;DHT22;51462;51.422;5.514;2022-11-15T08:46:23;10.90;99.90
24226;DHT22;51462;51.422;5.514;2022-11-15T08:48:49;10.90;99.90
24226;DHT22;51462;51.422;5.514;2022-11-15T08:51:14;10.90;99.90
24226;DHT22;51462;51.422;5.514;2022-11-15T08:53:40;10.90;99.90
24226;DHT22;51462;51.422;5.514;2022-11-15T08:56:10;11.00;99.90
24226;DHT22;51462;51.422;5.514;2022-11-15T08:58:36;10.90;99.90
24226;DHT22;51462;51.422;5.514;2022-11-15T09:01:03;10.90;99.90
24226;DHT22;51462;51.422;5.514;2022-11-15T09:03:29;10.90;99.90
24226;DHT22;51462;51.422;5.514;2022-11-15T09:05:56;11.00;99.90
24226;DHT22;51462;51.422;5.514;2022-11-15T09:08:22;11.10;99.90
24226;DHT22;51462;51.422;5.514;2022-11-15T09:10:47;11.10;99.90
24226;DHT22;51462;51.422;5.514;2022-11-15T09:13:13;11.20;99.90
24226;DHT22;51462;51.422;5.514;2022-11-15T09:15:39;11.20;99.90
24226;DHT22;51462;51.422;5.514;2022-11-15T09:18:04;11.30;99.90
24226;DHT22;51462;51.422;5.514;2022-11-15T09:20:30;11.30;99.90
24226;DHT22;51462;51.422;5.514;2022-11-15T09:23:00;11.30;99.90
24226;DHT22;51462;51.422;5.514;2022-11-15T09:25:26;11.30;99.90
24226;DHT22;51462;51.422;5.514;2022-11-15T09:27:52;11.40;99.90
24226;DHT22;51462;51.422;5.514;2022-11-15T09:30:17;11.40;99.90
24226;DHT22;51462;51.422;5.514;2022-11-15T09:32:43;11.30;99.90
24226;DHT22;51462;51.422;5.514;2022-11-15T09:35:08;11.40;99.90
24226;DHT22;51462;51.422;5.514;2022-11-15T09:37:34;11.40;99.90
24226;DHT22;51462;51.422;5.514;2022-11-15T09:39:59;11.40;99.90
24226;DHT22;51462;51.422;5.514;2022-11-15T09:42:43;11.30;99.90
24226;DHT22;51462;51.422;5.514;2022-11-15T09:45:18;11.50;99.90
24226;DHT22;51462;51.422;5.514;2022-11-15T09:48:17;11.40;99.90
24226;DHT22;51462;51.422;5.514;2022-11-15T09:50:49;11.40;99.90
24226;DHT22;51462;51.422;5.514;2022-11-15T09:53:29;11.50;99.90
24226;DHT22;51462;51.422;5.514;2022-11-15T09:56:00;11.40;99.90
24226;DHT22;51462;51.422;5.514;2022-11-15T09:58:29;11.40;99.90
24226;DHT22;51462;51.422;5.514;2022-11-15T10:01:00;11.20;99.90
24226;DHT22;51462;51.422;5.514;2022-11-15T10:03:31;11.30;99.90
24226;DHT22;51462;51.422;5.514;2022-11-15T10:06:00;11.50;99.90
24226;DHT22;51462;51.422;5.514;2022-11-15T10:08:44;11.50;99.90
24226;DHT22;51462;51.422;5.514;2022-11-15T10:11:17;11.50;99.90
24226;DHT22;51462;51.422;5.514;2022-11-15T10:13:46;11.50;99.90
24226;DHT22;51462;51.422;5.514;2022-11-15T10:22:03;11.50;99.90
24226;DHT22;51462;51.422;5.514;2022-11-15T10:24:34;11.40;99.90
24226;DHT22;51462;51.422;5.514;2022-11-15T10:27:00;11.50;99.90
24226;DHT22;51462;51.422;5.514;2022-11-15T10:29:26;11.50;99.90
24226;DHT22;51462;51.422;5.514;2022-11-15T10:31:51;11.50;99.90
24226;DHT22;51462;51.422;5.514;2022-11-15T10:34:22;11.50;99.90
24226;DHT22;51462;51.422;5.514;2022-11-15T10:36:56;11.60;99.90
24226;DHT22;51462;51.422;5.514;2022-11-15T10:39:22;11.60;99.90
24226;DHT22;51462;51.422;5.514;2022-11-15T10:41:47;11.60;99.90
24226;DHT22;51462;51.422;5.514;2022-11-15T10:46:43;11.60;99.90
24226;DHT22;51462;51.422;5.514;2022-11-15T10:54:37;11.60;99.90
24226;DHT22;51462;51.422;5.514;2022-11-15T10:57:12;11.70;99.90
24226;DHT22;51462;51.422;5.514;2022-11-15T10:59:44;11.80;99.90
24226;DHT22;51462;51.422;5.514;2022-11-15T11:02:32;11.80;99.90
24226;DHT22;51462;51.422;5.514;2022-11-15T11:04:59;12.00;99.90
24226;DHT22;51462;51.422;5.514;2022-11-15T11:07:32;12.00;99.90
24226;DHT22;51462;51.422;5.514;2022-11-15T11:10:20;12.10;99.90
24226;DHT22;51462;51.422;5.514;2022-11-15T11:12:46;12.20;99.90
24226;DHT22;51462;51.422;5.514;2022-11-15T11:15:14;12.40;99.90
24226;DHT22;51462;51.422;5.514;2022-11-15T11:18:12;12.50;99.90
24226;DHT22;51462;51.422;5.514;2022-11-15T11:20:45;12.50;99.90
24226;DHT22;51462;51.422;5.514;2022-11-15T11:23:30;12.60;99.90
24226;DHT22;51462;51.422;5.514;2022-11-15T11:26:09;12.60;99.90
24226;DHT22;51462;51.422;5.514;2022-11-15T11:28:59;12.80;99.90
24226;DHT22;51462;51.422;5.514;2022-11-15T11:34:40;12.80;99.90
24226;DHT22;51462;51.422;5.514;2022-11-15T11:37:28;12.80;99.90
24226;DHT22;51462;51.422;5.514;2022-11-15T11:45:31;12.90;99.90
24226;DHT22;51462;51.422;5.514;2022-11-15T11:50:27;13.10;99.90
24226;DHT22;51462;51.422;5.514;2022-11-15T11:53:14;13.40;99.90
24226;DHT22;51462;51.422;5.514;2022-11-15T12:00:43;13.10;99.90
24226;DHT22;51462;51.422;5.514;2022-11-15T12:03:38;13.10;99.90
24226;DHT22;51462;51.422;5.514;2022-11-15T12:08:50;13.40;99.90
24226;DHT22;51462;51.422;5.514;2022-11-15T12:11:29;13.50;99.90
24226;DHT22;51462;51.422;5.514;2022-11-15T12:13:58;13.50;99.90
24226;DHT22;51462;51.422;5.514;2022-11-15T12:16:30;13.60;99.90
24226;DHT22;51462;51.422;5.514;2022-11-15T12:18:59;13.30;99.90
24226;DHT22;51462;51.422;5.514;2022-11-15T12:21:42;13.40;99.90
24226;DHT22;51462;51.422;5.514;2022-11-15T12:24:22;13.80;99.90
24226;DHT22;51462;51.422;5.514;2022-11-15T12:26:55;13.90;99.90
24226;DHT22;51462;51.422;5.514;2022-11-15T12:29:29;13.60;99.90
24226;DHT22;51462;51.422;5.514;2022-11-15T12:31:57;13.90;99.90
24226;DHT22;51462;51.422;5.514;2022-11-15T12:36:53;13.70;99.90
24226;DHT22;51462;51.422;5.514;2022-11-15T12:39:19;13.70;99.90
24226;DHT22;51462;51.422;5.514;2022-11-15T13:02:44;14.00;99.90
24226;DHT22;51462;51.422;5.514;2022-11-15T13:17:47;14.00;99.90
24226;DHT22;51462;51.422;5.514;2022-11-15T13:33:34;13.90;99.90
24226;DHT22;51462;51.422;5.514;2022-11-15T13:36:16;14.00;99.90
24226;DHT22;51462;51.422;5.514;2022-11-15T13:38:43;14.10;99.90
24226;DHT22;51462;51.422;5.514;2022-11-15T13:41:21;14.00;99.90
24226;DHT22;51462;51.422;5.514;2022-11-15T13:43:48;13.90;99.90
24226;DHT22;51462;51.422;5.514;2022-11-15T13:46:23;13.90;99.90
24226;DHT22;51462;51.422;5.514;2022-11-15T13:48:57;14.00;99.90
24226;DHT22;51462;51.422;5.514;2022-11-15T13:56:42;13.80;99.90
24226;DHT22;51462;51.422;5.514;2022-11-15T13:59:20;13.70;99.90
24226;DHT22;51462;51.422;5.514;2022-11-15T14:01:49;13.70;99.90
24226;DHT22;51462;51.422;5.514;2022-11-15T14:04:19;13.70;99.90
24226;DHT22;51462;51.422;5.514;2022-11-15T14:06:46;13.70;99.90
24226;DHT22;51462;51.422;5.514;2022-11-15T14:09:31;13.60;99.90
24226;DHT22;51462;51.422;5.514;2022-11-15T14:11:58;13.70;99.90
24226;DHT22;51462;51.422;5.514;2022-11-15T14:14:26;13.70;99.90
24226;DHT22;51462;51.422;5.514;2022-11-15T14:16:55;13.60;99.90
24226;DHT22;51462;51.422;5.514;2022-11-15T14:24:45;13.60;99.90
24226;DHT22;51462;51.422;5.514;2022-11-15T14:27:38;13.60;99.90
24226;DHT22;51462;51.422;5.514;2022-11-15T14:30:03;13.60;99.90
24226;DHT22;51462;51.422;5.514;2022-11-15T14:32:43;13.50;99.90
24226;DHT22;51462;51.422;5.514;2022-11-15T14:35:15;13.50;99.90
24226;DHT22;51462;51.422;5.514;2022-11-15T14:37:41;13.50;99.90
24226;DHT22;51462;51.422;5.514;2022-11-15T14:40:08;13.60;99.90
24226;DHT22;51462;51.422;5.514;2022-11-15T14:42:35;13.50;99.90
24226;DHT22;51462;51.422;5.514;2022-11-15T14:45:00;13.40;99.90
24226;DHT22;51462;51.422;5.514;2022-11-15T14:47:26;13.40;99.90
24226;DHT22;51462;51.422;5.514;2022-11-15T14:49:51;13.40;99.90
24226;DHT22;51462;51.422;5.514;2022-11-15T14:52:30;13.40;99.90
24226;DHT22;51462;51.422;5.514;2022-11-15T14:55:00;13.30;99.90
24226;DHT22;51462;51.422;5.514;2022-11-15T14:57:27;13.30;99.90
24226;DHT22;51462;51.422;5.514;2022-11-15T14:59:53;13.30;99.90
24226;DHT22;51462;51.422;5.514;2022-11-15T15:02:21;13.30;99.90
24226;DHT22;51462;51.422;5.514;2022-11-15T15:04:47;13.30;99.90
24226;DHT22;51462;51.422;5.514;2022-11-15T15:07:13;13.30;99.90
24226;DHT22;51462;51.422;5.514;2022-11-15T15:09:39;13.20;99.90
24226;DHT22;51462;51.422;5.514;2022-11-15T15:12:19;13.20;99.90
24226;DHT22;51462;51.422;5.514;2022-11-15T15:14:47;13.20;99.90
24226;DHT22;51462;51.422;5.514;2022-11-15T15:17:13;13.20;99.90
24226;DHT22;51462;51.422;5.514;2022-11-15T15:19:38;13.20;99.90
24226;DHT22;51462;51.422;5.514;2022-11-15T15:22:04;13.20;99.90
24226;DHT22;51462;51.422;5.514;2022-11-15T15:24:30;13.20;99.90
24226;DHT22;51462;51.422;5.514;2022-11-15T15:26:56;13.20;99.90
24226;DHT22;51462;51.422;5.514;2022-11-15T15:29:21;13.10;99.90
24226;DHT22;51462;51.422;5.514;2022-11-15T15:31:47;13.10;99.90
24226;DHT22;51462;51.422;5.514;2022-11-15T15:34:12;13.10;99.90
24226;DHT22;51462;51.422;5.514;2022-11-15T15:36:38;13.10;99.90
24226;DHT22;51462;51.422;5.514;2022-11-15T15:39:03;13.10;99.90
24226;DHT22;51462;51.422;5.514;2022-11-15T15:41:29;13.10;99.90
24226;DHT22;51462;51.422;5.514;2022-11-15T15:43:54;13.10;99.90
24226;DHT22;51462;51.422;5.514;2022-11-15T15:46:20;13.10;99.90
24226;DHT22;51462;51.422;5.514;2022-11-15T15:48:46;13.00;99.90
24226;DHT22;51462;51.422;5.514;2022-11-15T15:51:12;13.10;99.90
24226;DHT22;51462;51.422;5.514;2022-11-15T15:53:38;13.10;99.90
24226;DHT22;51462;51.422;5.514;2022-11-15T15:56:03;13.00;99.90
24226;DHT22;51462;51.422;5.514;2022-11-15T15:58:29;13.10;99.90
24226;DHT22;51462;51.422;5.514;2022-11-15T16:00:55;13.00;99.90
24226;DHT22;51462;51.422;5.514;2022-11-15T16:03:20;13.10;99.90
24226;DHT22;51462;51.422;5.514;2022-11-15T16:05:46;13.00;99.90
24226;DHT22;51462;51.422;5.514;2022-11-15T16:08:20;13.00;99.90
24226;DHT22;51462;51.422;5.514;2022-11-15T16:10:46;13.10;99.90
24226;DHT22;51462;51.422;5.514;2022-11-15T16:13:12;13.00;99.90
24226;DHT22;51462;51.422;5.514;2022-11-15T16:15:37;13.00;99.90
24226;DHT22;51462;51.422;5.514;2022-11-15T16:18:04;13.00;99.90
24226;DHT22;51462;51.422;5.514;2022-11-15T16:20:34;13.00;99.90
24226;DHT22;51462;51.422;5.514;2022-11-15T16:23:01;12.90;99.90
24226;DHT22;51462;51.422;5.514;2022-11-15T16:25:27;12.90;99.90
24226;DHT22;51462;51.422;5.514;2022-11-15T16:27:52;13.00;99.90
24226;DHT22;51462;51.422;5.514;2022-11-15T16:30:21;12.90;99.90
24226;DHT22;51462;51.422;5.514;2022-11-15T16:32:47;12.80;99.90
24226;DHT22;51462;51.422;5.514;2022-11-15T16:35:16;12.90;99.90
24226;DHT22;51462;51.422;5.514;2022-11-15T16:37:43;12.90;99.90
24226;DHT22;51462;51.422;5.514;2022-11-15T16:40:28;12.80;99.90
24226;DHT22;51462;51.422;5.514;2022-11-15T16:42:56;12.80;99.90
24226;DHT22;51462;51.422;5.514;2022-11-15T16:45:21;12.80;99.90
24226;DHT22;51462;51.422;5.514;2022-11-15T16:47:47;12.80;99.90
24226;DHT22;51462;51.422;5.514;2022-11-15T16:50:26;12.80;99.90
24226;DHT22;51462;51.422;5.514;2022-11-15T16:52:53;12.80;99.90
24226;DHT22;51462;51.422;5.514;2022-11-15T16:55:20;12.70;99.90
24226;DHT22;51462;51.422;5.514;2022-11-15T16:57:46;12.80;99.90
24226;DHT22;51462;51.422;5.514;2022-11-15T17:00:13;12.70;99.90
24226;DHT22;51462;51.422;5.514;2022-11-15T17:02:42;12.70;99.90
24226;DHT22;51462;51.422;5.514;2022-11-15T17:05:08;12.70;99.90
24226;DHT22;51462;51.422;5.514;2022-11-15T17:07:34;12.70;99.90
24226;DHT22;51462;51.422;5.514;2022-11-15T17:09:59;12.70;99.90
24226;DHT22;51462;51.422;5.514;2022-11-15T17:12:25;12.70;99.90
24226;DHT22;51462;51.422;5.514;2022-11-15T17:14:50;12.70;99.90
24226;DHT22;51462;51.422;5.514;2022-11-15T17:17:16;12.60;99.90
24226;DHT22;51462;51.422;5.514;2022-11-15T17:19:41;12.60;99.90
24226;DHT22;51462;51.422;5.514;2022-11-15T17:22:07;12.60;99.90
24226;DHT22;51462;51.422;5.514;2022-11-15T17:24:32;12.60;99.90
24226;DHT22;51462;51.422;5.514;2022-11-15T17:26:58;12.60;99.90
24226;DHT22;51462;51.422;5.514;2022-11-15T17:29:23;12.50;99.90
24226;DHT22;51462;51.422;5.514;2022-11-15T17:31:49;12.50;99.90
24226;DHT22;51462;51.422;5.514;2022-11-15T17:34:15;12.60;99.90
24226;DHT22;51462;51.422;5.514;2022-11-15T17:36:40;12.50;99.90
24226;DHT22;51462;51.422;5.514;2022-11-15T17:39:06;12.50;99.90
24226;DHT22;51462;51.422;5.514;2022-11-15T17:41:31;12.60;99.90
24226;DHT22;51462;51.422;5.514;2022-11-15T17:43:58;12.50;99.90